createdAt,value
2019-02-23T00:02:05.392Z,4.72
2019-02-23T00:04:32.139Z,3.22
2019-02-23T00:06:58.880Z,5.00
2019-02-23T00:09:25.614Z,4.90
2019-02-23T00:11:52.361Z,4.83
2019-02-23T00:14:19.096Z,4.83
2019-02-23T00:16:45.939Z,4.87
2019-02-23T00:19:12.577Z,4.90
2019-02-23T00:21:39.321Z,4.92
2019-02-23T00:24:06.047Z,4.45
2019-02-23T00:26:33.818Z,4.40
2019-02-23T00:29:00.549Z,5.20
2019-02-23T00:31:27.290Z,4.20
2019-02-23T00:33:53.934Z,4.83
2019-02-23T00:36:20.704Z,3.72
2019-02-23T00:38:47.412Z,3.67
2019-02-23T00:41:14.146Z,4.33
2019-02-23T00:43:40.994Z,4.35
2019-02-23T00:46:07.736Z,4.53
2019-02-23T00:48:34.474Z,4.17
2019-02-23T00:51:01.207Z,4.10
2019-02-23T00:53:27.943Z,4.20
2019-02-23T00:55:54.590Z,4.00
2019-02-23T00:58:21.345Z,4.53
2019-02-23T01:00:48.063Z,3.27
2019-02-23T01:03:14.798Z,3.85
2019-02-23T01:05:41.546Z,3.50
2019-02-23T01:08:08.256Z,3.62
2019-02-23T01:10:34.948Z,3.50
2019-02-23T01:13:01.826Z,3.72
2019-02-23T01:15:28.605Z,3.70
2019-02-23T01:17:55.345Z,3.50
2019-02-23T01:20:22.198Z,3.40
2019-02-23T01:22:48.919Z,3.25
2019-02-23T01:25:15.666Z,3.10
2019-02-23T01:27:42.298Z,2.87
2019-02-23T01:30:09.356Z,2.83
2019-02-23T01:32:35.986Z,3.02
2019-02-23T01:35:03.438Z,2.50
2019-02-23T01:37:30.185Z,2.72
2019-02-23T01:39:56.922Z,2.58
2019-02-23T01:42:23.653Z,2.17
2019-02-23T01:44:50.811Z,1.85
2019-02-23T01:47:17.544Z,2.15
2019-02-23T01:49:44.285Z,2.17
2019-02-23T01:52:12.056Z,1.35
2019-02-23T01:54:38.679Z,1.90
2019-02-23T01:57:05.445Z,1.67
2019-02-23T01:59:32.131Z,1.55
2019-02-23T02:01:58.775Z,1.60
2019-02-23T02:04:25.450Z,1.50
2019-02-23T02:06:52.282Z,1.80
2019-02-23T02:09:18.914Z,1.75
2019-02-23T02:11:45.658Z,1.92
2019-02-23T02:14:12.398Z,1.40
2019-02-23T02:16:39.138Z,1.57
2019-02-23T02:19:05.869Z,1.62
2019-02-23T02:21:32.609Z,1.85
2019-02-23T02:23:59.460Z,1.80
2019-02-23T02:26:26.191Z,1.87
2019-02-23T02:28:52.938Z,1.95
2019-02-23T02:31:19.679Z,1.87
2019-02-23T02:34:07.817Z,1.77
2019-02-23T02:36:34.459Z,1.90
2019-02-23T02:39:01.187Z,1.57
2019-02-23T02:41:28.245Z,1.30
2019-02-23T02:43:55.086Z,1.60
2019-02-23T02:46:21.918Z,1.42
2019-02-23T02:48:48.766Z,1.70
2019-02-23T02:51:15.407Z,1.15
2019-02-23T02:53:42.142Z,1.70
2019-02-23T02:56:08.983Z,1.50
2019-02-23T02:58:35.625Z,1.67
2019-02-23T03:01:02.257Z,1.62
2019-02-23T03:03:28.991Z,1.70
2019-02-23T03:05:55.635Z,1.80
2019-02-23T03:08:22.263Z,1.70
2019-02-23T03:10:49.012Z,1.95
2019-02-23T03:13:15.642Z,1.75
2019-02-23T03:15:43.405Z,1.62
2019-02-23T03:18:10.156Z,1.20
2019-02-23T03:20:37.067Z,1.57
2019-02-23T03:23:03.828Z,1.45
2019-02-23T03:25:30.570Z,1.60
2019-02-23T03:27:57.311Z,1.67
2019-02-23T03:30:24.052Z,1.70
2019-02-23T03:32:50.784Z,1.50
2019-02-23T03:35:17.406Z,1.37
2019-02-23T03:37:44.098Z,1.62
2019-02-23T03:40:10.910Z,1.60
2019-02-23T03:42:37.557Z,1.45
2019-02-23T03:45:04.234Z,1.67
2019-02-23T03:47:31.091Z,1.37
2019-02-23T03:49:57.958Z,1.77
2019-02-23T03:52:24.707Z,1.00
2019-02-23T03:54:51.439Z,1.45
2019-02-23T03:57:18.077Z,1.22
2019-02-23T03:59:44.791Z,1.67
2019-02-23T04:02:11.553Z,1.57
2019-02-23T04:04:38.275Z,1.35
2019-02-23T04:07:04.983Z,1.45
2019-02-23T04:09:31.685Z,1.72
2019-02-23T04:11:58.301Z,1.00
2019-02-23T04:14:24.970Z,1.55
2019-02-23T04:16:51.693Z,1.52
2019-02-23T04:19:18.535Z,1.20
2019-02-23T04:21:45.243Z,1.47
2019-02-23T04:24:11.972Z,1.32
2019-02-23T04:26:38.648Z,1.70
2019-02-23T04:29:05.495Z,1.98
2019-02-23T04:31:32.325Z,1.30
2019-02-23T04:33:58.998Z,1.42
2019-02-23T04:36:25.702Z,1.52
2019-02-23T04:38:52.446Z,1.70
2019-02-23T04:41:19.179Z,1.50
2019-02-23T04:43:45.818Z,1.85
2019-02-23T04:46:12.764Z,1.72
2019-02-23T04:48:39.507Z,1.90
2019-02-23T04:51:14.251Z,1.80
2019-02-23T04:53:35.127Z,1.55
2019-02-23T04:56:01.881Z,1.80
2019-02-23T04:58:28.617Z,1.72
2019-02-23T05:00:55.349Z,1.90
2019-02-23T05:03:22.510Z,1.25
2019-02-23T05:05:49.342Z,1.47
2019-02-23T05:08:16.083Z,1.77
2019-02-23T05:10:42.721Z,1.40
2019-02-23T05:13:10.399Z,1.67
2019-02-23T05:15:37.218Z,1.37
2019-02-23T05:18:03.959Z,1.67
2019-02-23T05:20:30.798Z,1.30
2019-02-23T05:22:57.640Z,2.35
2019-02-23T05:25:24.277Z,1.60
2019-02-23T05:27:51.021Z,2.02
2019-02-23T05:30:17.779Z,1.30
2019-02-23T05:32:44.456Z,1.70
2019-02-23T05:35:12.067Z,1.92
2019-02-23T05:37:38.900Z,1.70
2019-02-23T05:40:08.505Z,1.90
2019-02-23T05:42:35.241Z,1.47
2019-02-23T05:45:01.993Z,1.92
2019-02-23T05:47:28.719Z,1.80
2019-02-23T05:49:55.562Z,1.72
2019-02-23T05:52:22.352Z,1.82
2019-02-23T05:54:49.355Z,2.00
2019-02-23T05:57:16.089Z,1.75
2019-02-23T05:59:43.141Z,2.40
2019-02-23T06:02:10.292Z,2.12
2019-02-23T06:04:36.955Z,2.30
2019-02-23T06:07:03.750Z,2.33
2019-02-23T06:09:30.408Z,2.00
2019-02-23T06:11:57.146Z,2.05
2019-02-23T06:14:23.879Z,2.30
2019-02-23T06:16:50.622Z,2.67
2019-02-23T06:19:17.257Z,1.37
2019-02-23T06:21:53.519Z,3.10
2019-02-23T06:24:12.686Z,2.30
2019-02-23T06:26:39.426Z,2.37
2019-02-23T06:29:06.299Z,2.30
2019-02-23T06:31:33.108Z,2.50
2019-02-23T06:33:59.754Z,2.72
2019-02-23T06:36:26.454Z,2.47
2019-02-23T06:38:53.227Z,2.60
2019-02-23T06:41:19.960Z,2.67
2019-02-23T06:43:46.799Z,2.35
2019-02-23T06:46:13.643Z,2.25
2019-02-23T06:48:40.386Z,2.98
2019-02-23T06:51:07.229Z,3.47
2019-02-23T06:53:34.071Z,3.58
2019-02-23T06:56:00.814Z,3.10
2019-02-23T06:58:27.543Z,3.35
2019-02-23T07:00:54.163Z,3.22
2019-02-23T07:03:20.838Z,4.03
2019-02-23T07:05:47.497Z,4.30
2019-02-23T07:08:14.170Z,4.95
2019-02-23T07:10:40.831Z,3.87
2019-02-23T07:13:07.538Z,3.52
2019-02-23T07:15:34.180Z,3.10
2019-02-23T07:18:00.808Z,3.50
2019-02-23T07:20:27.539Z,2.80
2019-02-23T07:22:54.219Z,3.08
2019-02-23T07:25:20.968Z,4.12
2019-02-23T07:28:10.957Z,3.75
2019-02-23T07:30:37.751Z,3.37
2019-02-23T07:33:04.444Z,2.80
2019-02-23T07:35:31.154Z,2.85
2019-02-23T07:37:57.796Z,3.12
2019-02-23T07:40:24.547Z,3.37
2019-02-23T07:42:51.284Z,4.05
2019-02-23T07:45:17.961Z,4.28
2019-02-23T07:47:44.658Z,3.42
2019-02-23T07:50:13.986Z,3.58
2019-02-23T07:52:40.591Z,2.37
2019-02-23T07:55:07.433Z,2.85
2019-02-23T07:57:34.115Z,3.17
2019-02-23T08:00:00.899Z,3.05
2019-02-23T08:02:27.765Z,3.08
2019-02-23T08:04:54.574Z,2.58
2019-02-23T08:07:21.351Z,2.65
2019-02-23T08:09:49.074Z,3.30
2019-02-23T08:12:15.812Z,2.12
2019-02-23T08:14:42.919Z,2.42
2019-02-23T08:17:09.584Z,2.60
2019-02-23T08:19:36.472Z,2.30
2019-02-23T08:22:03.307Z,2.20
2019-02-23T08:24:30.020Z,3.10
2019-02-23T08:26:56.747Z,2.90
2019-02-23T08:29:23.542Z,3.20
2019-02-23T08:31:50.143Z,2.83
2019-02-23T08:34:16.802Z,2.62
2019-02-23T08:36:43.644Z,2.85
2019-02-23T08:39:10.299Z,2.33
2019-02-23T08:41:36.934Z,3.08
2019-02-23T08:44:03.655Z,3.25
2019-02-23T08:46:31.913Z,4.10
2019-02-23T08:48:58.627Z,2.95
2019-02-23T08:51:25.348Z,2.67
2019-02-23T08:53:51.956Z,1.87
2019-02-23T08:56:18.655Z,1.72
2019-02-23T08:58:45.323Z,1.52
2019-02-23T09:01:12.026Z,1.98
2019-02-23T09:03:38.812Z,2.58
2019-02-23T09:06:05.515Z,2.60
2019-02-23T09:08:32.128Z,2.37
2019-02-23T09:10:58.920Z,2.65
2019-02-23T09:13:25.679Z,2.95
2019-02-23T09:15:52.349Z,2.52
2019-02-23T09:18:19.042Z,2.58
2019-02-23T09:20:45.745Z,2.12
2019-02-23T09:23:12.440Z,2.35
2019-02-23T09:25:39.146Z,2.47
2019-02-23T09:28:05.862Z,2.25
2019-02-23T09:30:32.504Z,2.30
2019-02-23T09:32:59.191Z,2.37
2019-02-23T09:35:25.875Z,2.12
2019-02-23T09:37:52.582Z,2.27
2019-02-23T09:40:19.569Z,1.98
2019-02-23T09:42:46.207Z,2.08
2019-02-23T09:45:12.847Z,2.20
2019-02-23T09:47:39.672Z,1.95
2019-02-23T09:50:06.820Z,2.20
2019-02-23T09:52:33.513Z,2.10
2019-02-23T09:55:00.360Z,1.98
2019-02-23T09:57:27.179Z,2.10
2019-02-23T09:59:53.804Z,2.35
2019-02-23T10:02:20.485Z,1.85
2019-02-23T10:04:47.096Z,1.90
2019-02-23T10:07:13.783Z,1.65
2019-02-23T10:09:40.448Z,2.00
2019-02-23T10:12:07.136Z,2.02
2019-02-23T10:14:33.826Z,2.17
2019-02-23T10:17:00.543Z,2.08
2019-02-23T10:19:27.166Z,2.02
2019-02-23T10:21:53.859Z,2.08
2019-02-23T10:24:20.591Z,2.42
2019-02-23T10:26:47.292Z,1.87
2019-02-23T10:29:13.999Z,2.35
2019-02-23T10:31:40.714Z,3.00
2019-02-23T10:34:07.340Z,2.40
2019-02-23T10:36:34.022Z,2.20
2019-02-23T10:39:00.871Z,2.33
2019-02-23T10:41:27.659Z,2.30
2019-02-23T10:43:54.450Z,2.20
2019-02-23T10:46:21.175Z,2.12
2019-02-23T10:48:47.863Z,2.50
2019-02-23T10:51:14.506Z,1.98
2019-02-23T10:53:41.239Z,2.52
2019-02-23T10:56:07.848Z,2.08
2019-02-23T10:58:34.504Z,2.50
2019-02-23T11:01:01.187Z,2.25
2019-02-23T11:03:27.786Z,2.02
2019-02-23T11:05:54.371Z,2.05
2019-02-23T11:08:21.055Z,1.52
2019-02-23T11:10:47.643Z,2.00
2019-02-23T11:13:14.247Z,2.25
2019-02-23T11:15:40.951Z,2.30
2019-02-23T11:18:07.565Z,2.25
2019-02-23T11:20:34.277Z,2.45
2019-02-23T11:23:00.961Z,2.10
2019-02-23T11:25:27.649Z,2.17
2019-02-23T11:27:54.383Z,2.62
2019-02-23T11:30:21.117Z,2.10
2019-02-23T11:32:47.760Z,2.17
2019-02-23T11:35:17.189Z,2.22
2019-02-23T11:37:43.808Z,2.25
2019-02-23T11:40:11.767Z,2.22
2019-02-23T11:42:38.415Z,2.58
2019-02-23T11:45:05.425Z,2.17
2019-02-23T11:47:32.034Z,2.22
2019-02-23T11:49:58.767Z,2.12
2019-02-23T11:52:25.448Z,2.27
2019-02-23T11:54:52.116Z,2.15
2019-02-23T11:57:18.815Z,1.95
2019-02-23T11:59:45.580Z,2.55
2019-02-23T12:02:13.337Z,2.05
2019-02-23T12:04:40.083Z,2.55
2019-02-23T12:07:06.823Z,2.55
2019-02-23T12:09:33.453Z,2.80
2019-02-23T12:12:00.119Z,2.62
2019-02-23T12:14:26.913Z,2.62
2019-02-23T12:16:53.646Z,1.90
2019-02-23T12:19:20.348Z,2.80
2019-02-23T12:21:47.072Z,1.90
2019-02-23T12:24:13.658Z,2.50
2019-02-23T12:26:40.312Z,2.30
2019-02-23T12:29:07.014Z,2.55
2019-02-23T12:31:33.637Z,2.17
2019-02-23T12:34:00.327Z,2.33
2019-02-23T12:36:26.997Z,2.40
2019-02-23T12:38:53.652Z,2.67
2019-02-23T12:41:20.258Z,2.72
2019-02-23T12:43:46.989Z,2.77
2019-02-23T12:46:13.622Z,2.22
2019-02-23T12:48:40.260Z,2.50
2019-02-23T12:51:07.000Z,3.10
2019-02-23T12:53:33.592Z,3.80
2019-02-23T12:56:00.187Z,2.52
2019-02-23T12:58:26.974Z,2.70
2019-02-23T13:00:53.855Z,2.45
2019-02-23T13:03:20.592Z,2.00
2019-02-23T13:05:47.305Z,2.35
2019-02-23T13:08:13.896Z,3.60
2019-02-23T13:10:40.763Z,2.50
2019-02-23T13:13:35.214Z,2.70
2019-02-23T13:16:08.479Z,2.10
2019-02-23T13:18:44.752Z,2.25
2019-02-23T13:21:30.190Z,2.40
2019-02-23T13:24:12.699Z,2.25
2019-02-23T13:26:58.443Z,2.55
2019-02-23T13:29:51.854Z,2.80
2019-02-23T13:32:25.010Z,2.35
2019-02-23T13:34:58.303Z,2.10
2019-02-23T13:37:31.639Z,2.22
2019-02-23T13:40:04.630Z,1.85
2019-02-23T13:42:44.068Z,2.35
2019-02-23T13:45:17.363Z,1.80
2019-02-23T13:48:04.369Z,2.52
2019-02-23T13:50:37.653Z,2.27
2019-02-23T13:53:17.302Z,1.70
2019-02-23T13:56:21.179Z,2.30
2019-02-23T13:58:57.595Z,2.20
2019-02-23T14:01:27.925Z,2.10
2019-02-23T14:04:33.694Z,2.00
2019-02-23T14:07:37.707Z,2.10
2019-02-23T14:10:20.313Z,2.27
2019-02-23T14:12:59.645Z,1.65
2019-02-23T14:15:35.704Z,2.12
2019-02-23T14:18:21.082Z,2.05
2019-02-23T14:21:26.938Z,1.80
2019-02-23T14:24:09.547Z,2.17
2019-02-23T14:26:42.739Z,1.95
2019-02-23T14:29:13.075Z,2.05
2019-02-23T14:32:12.364Z,2.65
2019-02-23T14:35:00.623Z,1.87
2019-02-23T14:37:33.963Z,2.10
2019-02-23T14:40:07.305Z,2.30
2019-02-23T14:43:03.533Z,1.82
2019-02-23T14:45:57.000Z,3.08
2019-02-23T14:48:36.115Z,7.78
2019-02-23T14:51:15.567Z,2.42
2019-02-23T14:53:46.101Z,2.10
2019-02-23T14:56:43.462Z,2.30
2019-02-23T14:59:26.068Z,2.92
2019-02-23T15:02:00.476Z,2.65
2019-02-23T15:04:30.800Z,2.50
2019-02-23T15:07:08.097Z,2.87
2019-02-23T15:09:53.059Z,2.22
2019-02-23T15:12:32.271Z,2.02
2019-02-23T15:15:08.344Z,2.02
2019-02-23T15:17:54.845Z,2.10
2019-02-23T15:20:25.175Z,2.75
2019-02-23T15:23:01.539Z,3.00
2019-02-23T15:26:06.368Z,3.30
2019-02-23T15:29:13.663Z,4.35
2019-02-23T15:32:08.247Z,6.33
2019-02-23T15:34:59.626Z,6.80
2019-02-23T15:37:32.928Z,3.90
2019-02-23T15:40:15.281Z,2.40
2019-02-23T15:43:08.553Z,2.92
2019-02-23T15:45:44.925Z,3.40
2019-02-23T15:48:24.472Z,2.90
2019-02-23T15:50:51.202Z,3.90
2019-02-23T15:53:17.932Z,3.40
2019-02-23T15:55:44.551Z,3.58
2019-02-23T15:58:11.295Z,5.30
2019-02-23T16:00:37.901Z,4.12
2019-02-23T16:03:04.700Z,4.45
2019-02-23T16:05:31.425Z,5.00
2019-02-23T16:07:59.023Z,4.42
2019-02-23T16:10:25.718Z,3.65
2019-02-23T16:12:52.364Z,3.22
2019-02-23T16:15:19.341Z,3.83
2019-02-23T16:17:45.951Z,4.80
2019-02-23T16:20:12.770Z,5.00
2019-02-23T16:22:39.398Z,4.10
2019-02-23T16:25:07.112Z,5.03
2019-02-23T16:27:33.869Z,8.58
2019-02-23T16:30:00.587Z,8.08
2019-02-23T16:32:27.328Z,6.15
2019-02-23T16:34:54.080Z,4.95
2019-02-23T16:37:20.706Z,4.45
2019-02-23T16:39:47.461Z,4.17
2019-02-23T16:42:14.149Z,4.10
2019-02-23T16:44:40.856Z,4.10
2019-02-23T16:47:07.565Z,4.17
2019-02-23T16:49:34.278Z,5.20
2019-02-23T16:52:00.965Z,5.45
2019-02-23T16:54:27.610Z,5.83
2019-02-23T16:56:54.368Z,7.55
2019-02-23T16:59:20.981Z,8.18
2019-02-23T17:01:47.763Z,7.70
2019-02-23T17:04:14.382Z,7.08
2019-02-23T17:06:41.132Z,8.43
2019-02-23T17:09:07.821Z,10.38
2019-02-23T17:11:34.504Z,7.42
2019-02-23T17:14:01.246Z,6.22
2019-02-23T17:16:27.859Z,7.37
2019-02-23T17:18:54.598Z,7.25
2019-02-23T17:21:21.263Z,7.85
2019-02-23T17:23:48.027Z,7.62
2019-02-23T17:26:14.784Z,5.78
2019-02-23T17:28:41.479Z,5.03
2019-02-23T17:31:08.204Z,5.00
2019-02-23T17:33:35.006Z,6.50
2019-02-23T17:36:01.615Z,7.55
2019-02-23T17:38:28.297Z,7.97
2019-02-23T17:40:54.978Z,6.70
2019-02-23T17:43:21.624Z,5.12
2019-02-23T17:45:48.267Z,5.53
2019-02-23T17:48:14.988Z,10.45
2019-02-23T17:50:41.590Z,6.40
2019-02-23T17:53:08.226Z,5.75
2019-02-23T17:55:34.939Z,14.50
2019-02-23T17:58:01.555Z,6.72
2019-02-23T18:00:28.239Z,6.10
2019-02-23T18:02:54.930Z,6.10
2019-02-23T18:05:21.539Z,6.70
2019-02-23T18:07:48.186Z,6.50
2019-02-23T18:10:14.882Z,5.40
2019-02-23T18:12:41.593Z,6.05
2019-02-23T18:15:08.608Z,8.33
2019-02-23T18:17:35.323Z,7.30
2019-02-23T18:20:02.211Z,6.78
2019-02-23T18:22:29.890Z,5.70
2019-02-23T18:24:56.580Z,5.28
2019-02-23T18:27:23.330Z,4.85
2019-02-23T18:29:49.950Z,5.47
2019-02-23T18:32:16.688Z,5.85
2019-02-23T18:34:43.299Z,8.63
2019-02-23T18:37:09.951Z,5.97
2019-02-23T18:39:36.615Z,6.50
2019-02-23T18:42:03.258Z,7.20
2019-02-23T18:44:29.880Z,4.47
2019-02-23T18:46:56.590Z,5.12
2019-02-23T18:49:24.281Z,6.15
2019-02-23T18:51:50.961Z,6.40
2019-02-23T18:54:17.668Z,6.62
2019-02-23T18:56:44.292Z,6.40
2019-02-23T18:59:10.960Z,6.08
2019-02-23T19:01:37.680Z,5.22
2019-02-23T19:04:04.307Z,6.22
2019-02-23T19:06:32.034Z,5.75
2019-02-23T19:08:58.673Z,5.72
2019-02-23T19:11:25.356Z,9.10
2019-02-23T19:13:52.037Z,5.83
2019-02-23T19:16:18.684Z,5.70
2019-02-23T19:18:45.317Z,5.65
2019-02-23T19:21:12.138Z,5.67
2019-02-23T19:23:38.747Z,5.92
2019-02-23T19:26:05.425Z,5.08
2019-02-23T19:28:32.117Z,5.35
2019-02-23T19:30:58.738Z,5.80
2019-02-23T19:33:25.376Z,5.42
2019-02-23T19:35:52.128Z,5.20
2019-02-23T19:38:18.702Z,4.97
2019-02-23T19:40:45.367Z,6.33
2019-02-23T19:43:12.083Z,5.92
2019-02-23T19:45:38.708Z,4.35
2019-02-23T19:48:05.355Z,5.10
2019-02-23T19:50:35.704Z,5.15
2019-02-23T19:53:02.318Z,4.55
2019-02-23T19:55:29.034Z,4.97
2019-02-23T19:57:55.729Z,5.05
2019-02-23T20:00:23.282Z,4.80
2019-02-23T20:02:50.117Z,5.17
2019-02-23T20:05:16.731Z,5.78
2019-02-23T20:07:43.830Z,4.90
2019-02-23T20:10:10.906Z,5.10
2019-02-23T20:12:38.531Z,5.33
2019-02-23T20:15:09.573Z,5.80
2019-02-23T20:17:36.195Z,6.87
2019-02-23T20:20:03.868Z,4.92
2019-02-23T20:22:30.625Z,4.83
2019-02-23T20:24:57.310Z,7.05
2019-02-23T20:27:24.030Z,7.33
2019-02-23T20:29:50.761Z,6.70
2019-02-23T20:32:17.355Z,6.95
2019-02-23T20:34:44.039Z,8.63
2019-02-23T20:37:10.745Z,7.90
2019-02-23T20:39:37.456Z,8.53
2019-02-23T20:42:04.161Z,17.07
2019-02-23T20:44:30.913Z,12.68
2019-02-23T20:46:57.663Z,10.55
2019-02-23T20:49:24.413Z,9.83
2019-02-23T20:51:51.262Z,11.45
2019-02-23T20:54:17.861Z,10.75
2019-02-23T20:56:45.741Z,11.55
2019-02-23T20:59:12.473Z,10.28
2019-02-23T21:01:39.122Z,7.72
2019-02-23T21:04:05.782Z,8.08
2019-02-23T21:06:32.529Z,7.30
2019-02-23T21:09:00.337Z,7.92
2019-02-23T21:11:29.033Z,5.65
2019-02-23T21:13:55.636Z,13.48
2019-02-23T21:16:22.369Z,22.85
2019-02-23T21:18:48.974Z,7.62
2019-02-23T21:21:15.717Z,7.55
2019-02-23T21:23:42.391Z,6.00
2019-02-23T21:26:09.039Z,6.45
2019-02-23T21:28:35.718Z,7.42
2019-02-23T21:31:02.445Z,7.20
2019-02-23T21:33:30.306Z,8.93
2019-02-23T21:35:59.213Z,6.90
2019-02-23T21:38:26.191Z,7.47
2019-02-23T21:40:52.929Z,12.58
2019-02-23T21:43:19.675Z,11.47
2019-02-23T21:45:46.405Z,8.23
2019-02-23T21:48:13.153Z,7.95
2019-02-23T21:50:39.892Z,6.37
2019-02-23T21:53:06.741Z,6.90
2019-02-23T21:55:35.573Z,6.28
2019-02-23T21:58:02.355Z,5.92
2019-02-23T22:00:29.145Z,6.08
2019-02-23T22:02:55.940Z,6.03
2019-02-23T22:05:22.718Z,5.95
2019-02-23T22:07:49.522Z,6.90
2019-02-23T22:10:16.256Z,7.47
2019-02-23T22:12:43.113Z,4.83
2019-02-23T22:15:09.954Z,5.45
2019-02-23T22:17:36.689Z,5.60
2019-02-23T22:20:04.759Z,4.87
2019-02-23T22:22:31.498Z,6.42
2019-02-23T22:24:59.216Z,6.40
2019-02-23T22:27:31.381Z,5.92
2019-02-23T22:29:55.826Z,6.10
2019-02-23T22:32:22.471Z,4.70
2019-02-23T22:34:49.303Z,5.00
2019-02-23T22:37:16.140Z,5.42
2019-02-23T22:39:42.873Z,4.40
2019-02-23T22:42:09.602Z,6.20
2019-02-23T22:44:36.343Z,5.22
2019-02-23T22:47:02.984Z,5.80
2019-02-23T22:49:29.722Z,5.60
2019-02-23T22:51:56.490Z,5.60
2019-02-23T22:54:23.196Z,5.90
2019-02-23T22:56:49.936Z,5.80
2019-02-23T22:59:16.677Z,5.28
2019-02-23T23:01:43.424Z,5.50
2019-02-23T23:04:11.908Z,5.25
2019-02-23T23:06:39.660Z,5.10
2019-02-23T23:09:08.065Z,6.30
2019-02-23T23:11:35.087Z,4.92
2019-02-23T23:14:01.822Z,5.42
2019-02-23T23:16:28.575Z,5.70
2019-02-23T23:18:55.312Z,5.75
2019-02-23T23:21:22.145Z,5.58
2019-02-23T23:23:48.777Z,5.22
2019-02-23T23:26:15.529Z,5.80
2019-02-23T23:28:42.363Z,5.70
2019-02-23T23:31:09.109Z,6.20
2019-02-23T23:33:35.886Z,6.00
2019-02-23T23:36:02.691Z,7.83
2019-02-23T23:38:29.321Z,9.58
2019-02-23T23:40:56.059Z,10.35
2019-02-23T23:43:22.801Z,9.45
2019-02-23T23:45:49.549Z,5.58
2019-02-23T23:48:16.295Z,5.22
2019-02-23T23:50:43.127Z,5.75
2019-02-23T23:53:09.757Z,5.53
2019-02-23T23:55:36.502Z,6.50
2019-02-23T23:58:03.258Z,5.50
